createdAt,value
2023-05-24T00:00:16.130Z,9.15
2023-05-24T00:02:43.149Z,9.12
2023-05-24T00:05:10.193Z,9.09
2023-05-24T00:07:36.855Z,9.05
2023-05-24T00:10:03.864Z,8.96
2023-05-24T00:12:32.012Z,8.88
2023-05-24T00:14:58.973Z,8.89
2023-05-24T00:17:25.549Z,8.85
2023-05-24T00:19:52.186Z,8.84
2023-05-24T00:22:18.842Z,8.80
2023-05-24T00:24:45.331Z,8.77
2023-05-24T00:27:11.979Z,8.72
2023-05-24T00:29:39.913Z,8.66
2023-05-24T00:32:06.787Z,8.61
2023-05-24T00:34:33.375Z,8.58
2023-05-24T00:36:59.890Z,8.56
2023-05-24T00:39:26.672Z,8.50
2023-05-24T00:41:53.160Z,8.46
2023-05-24T00:44:19.728Z,8.39
2023-05-24T00:46:47.880Z,8.32
2023-05-24T00:49:14.459Z,8.30
2023-05-24T00:51:41.184Z,8.29
2023-05-24T00:54:07.781Z,8.28
2023-05-24T00:56:34.572Z,8.26
2023-05-24T00:59:01.910Z,8.23
2023-05-24T01:01:28.531Z,8.22
2023-05-24T01:03:56.659Z,8.23
2023-05-24T01:06:23.659Z,8.22
2023-05-24T01:09:09.830Z,8.19
2023-05-24T01:11:48.785Z,8.19
2023-05-24T01:14:26.361Z,8.14
2023-05-24T01:17:00.309Z,8.14
2023-05-24T01:20:02.326Z,8.12
2023-05-24T01:22:49.961Z,8.05
2023-05-24T01:25:22.970Z,7.98
2023-05-24T01:27:51.153Z,7.92
2023-05-24T01:30:18.257Z,7.91
2023-05-24T01:32:45.016Z,7.85
2023-05-24T01:35:11.580Z,7.82
2023-05-24T01:37:38.096Z,7.81
2023-05-24T01:40:06.178Z,7.77
2023-05-24T01:42:40.461Z,7.67
2023-05-24T01:45:16.408Z,7.60
2023-05-24T01:47:58.268Z,7.56
2023-05-24T01:50:28.482Z,7.52
2023-05-24T01:53:01.023Z,7.52
2023-05-24T01:55:29.809Z,7.52
2023-05-24T01:58:00.643Z,7.49
2023-05-24T02:00:30.576Z,7.40
2023-05-24T02:02:58.320Z,7.33
2023-05-24T02:05:25.072Z,7.23
2023-05-24T02:07:51.604Z,7.20
2023-05-24T02:10:18.219Z,7.20
2023-05-24T02:12:44.828Z,7.22
2023-05-24T02:15:11.721Z,7.19
2023-05-24T02:17:39.621Z,7.20
2023-05-24T02:20:07.463Z,7.14
2023-05-24T02:22:34.072Z,7.15
2023-05-24T02:25:00.610Z,7.16
2023-05-24T02:27:27.143Z,7.16
2023-05-24T02:29:53.658Z,7.16
2023-05-24T02:32:20.273Z,7.20
2023-05-24T02:34:48.162Z,7.22
2023-05-24T02:37:14.720Z,7.25
2023-05-24T02:39:41.599Z,7.25
2023-05-24T02:42:08.608Z,7.24
2023-05-24T02:44:35.382Z,7.23
2023-05-24T02:47:01.933Z,7.21
2023-05-24T02:49:28.467Z,7.18
2023-05-24T02:51:56.340Z,7.11
2023-05-24T02:54:22.913Z,7.11
2023-05-24T02:56:49.454Z,7.14
2023-05-24T02:59:16.013Z,7.11
2023-05-24T03:01:42.597Z,7.10
2023-05-24T03:04:09.247Z,7.10
2023-05-24T03:06:35.843Z,7.10
2023-05-24T03:09:03.783Z,7.02
2023-05-24T03:11:30.315Z,6.97
2023-05-24T03:13:56.883Z,6.95
2023-05-24T03:16:23.597Z,6.92
2023-05-24T03:18:50.197Z,6.87
2023-05-24T03:21:16.943Z,6.85
2023-05-24T03:23:43.603Z,6.85
2023-05-24T03:26:11.515Z,6.88
2023-05-24T03:28:38.017Z,6.86
2023-05-24T03:31:04.890Z,6.86
2023-05-24T03:33:31.554Z,6.82
2023-05-24T03:35:58.183Z,6.75
2023-05-24T03:38:24.732Z,6.74
2023-05-24T03:40:51.331Z,6.76
2023-05-24T03:43:19.217Z,6.79
2023-05-24T03:45:45.842Z,6.79
2023-05-24T03:48:12.922Z,6.76
2023-05-24T03:50:39.438Z,6.76
2023-05-24T03:53:05.996Z,6.76
2023-05-24T03:55:32.540Z,6.76
2023-05-24T03:57:59.086Z,6.76
2023-05-24T04:00:27.116Z,6.75
2023-05-24T04:02:53.704Z,6.76
2023-05-24T04:05:20.283Z,6.77
2023-05-24T04:07:46.796Z,6.78
2023-05-24T04:10:13.339Z,6.79
2023-05-24T04:12:41.108Z,6.81
2023-05-24T04:15:08.886Z,6.80
2023-05-24T04:17:36.958Z,6.76
2023-05-24T04:20:04.144Z,6.82
2023-05-24T04:22:30.693Z,6.84
2023-05-24T04:24:57.232Z,6.87
2023-05-24T04:27:24.065Z,6.89
2023-05-24T04:29:50.595Z,6.89
2023-05-24T04:32:17.166Z,6.93
2023-05-24T04:34:45.987Z,6.93
2023-05-24T04:37:12.801Z,7.00
2023-05-24T04:39:39.383Z,7.05
2023-05-24T04:42:07.263Z,7.06
2023-05-24T04:44:33.821Z,7.09
2023-05-24T04:47:00.482Z,7.13
2023-05-24T04:49:27.102Z,7.13
2023-05-24T04:51:55.295Z,7.18
2023-05-24T04:54:21.929Z,7.21
2023-05-24T04:56:48.740Z,7.25
2023-05-24T04:59:15.277Z,7.30
2023-05-24T05:01:41.857Z,7.37
2023-05-24T05:04:08.495Z,7.41
2023-05-24T05:06:35.144Z,7.47
2023-05-24T05:09:03.144Z,7.50
2023-05-24T05:11:29.734Z,7.58
2023-05-24T05:13:56.294Z,7.64
2023-05-24T05:16:23.069Z,7.69
2023-05-24T05:18:49.623Z,7.70
2023-05-24T05:21:16.173Z,7.72
2023-05-24T05:23:42.741Z,7.78
2023-05-24T05:26:10.587Z,7.87
2023-05-24T05:28:37.192Z,7.93
2023-05-24T05:31:04.047Z,8.01
2023-05-24T05:33:31.393Z,8.06
2023-05-24T05:35:57.948Z,8.15
2023-05-24T05:38:24.529Z,8.21
2023-05-24T05:40:51.296Z,8.28
2023-05-24T05:43:19.171Z,8.35
2023-05-24T05:45:45.737Z,8.51
2023-05-24T05:48:12.345Z,8.57
2023-05-24T05:50:38.866Z,8.73
2023-05-24T05:53:05.389Z,8.87
2023-05-24T05:55:31.939Z,8.92
2023-05-24T05:57:58.473Z,8.97
2023-05-24T06:00:26.420Z,9.02
2023-05-24T06:02:53.003Z,9.07
2023-05-24T06:05:19.862Z,9.25
2023-05-24T06:07:46.413Z,9.30
2023-05-24T06:10:13.453Z,9.38
2023-05-24T06:12:39.955Z,9.53
2023-05-24T06:15:07.799Z,9.54
2023-05-24T06:17:36.629Z,9.67
2023-05-24T06:20:03.536Z,9.74
2023-05-24T06:22:30.097Z,9.89
2023-05-24T06:24:56.656Z,9.94
2023-05-24T06:27:23.185Z,10.03
2023-05-24T06:29:49.739Z,10.15
2023-05-24T06:32:16.394Z,10.23
2023-05-24T06:34:44.262Z,10.26
2023-05-24T06:37:10.776Z,10.25
2023-05-24T06:39:37.290Z,10.28
2023-05-24T06:42:04.429Z,10.41
2023-05-24T06:44:31.013Z,10.47
2023-05-24T06:46:57.652Z,10.68
2023-05-24T06:49:24.169Z,10.73
2023-05-24T06:51:52.215Z,10.85
2023-05-24T06:54:18.871Z,10.84
2023-05-24T06:56:45.471Z,11.02
2023-05-24T06:59:12.048Z,10.91
2023-05-24T07:01:39.541Z,10.99
2023-05-24T07:04:06.183Z,11.10
2023-05-24T07:06:32.749Z,11.27
2023-05-24T07:09:00.640Z,11.30
2023-05-24T07:11:27.387Z,11.45
2023-05-24T07:13:53.957Z,11.48
2023-05-24T07:16:20.562Z,11.66
2023-05-24T07:18:47.123Z,11.77
2023-05-24T07:21:13.663Z,11.79
2023-05-24T07:23:40.210Z,11.90
2023-05-24T07:26:08.030Z,12.07
2023-05-24T07:28:34.673Z,12.12
2023-05-24T07:31:01.292Z,12.11
2023-05-24T07:33:27.879Z,12.10
2023-05-24T07:35:54.475Z,12.16
2023-05-24T07:38:21.014Z,12.22
2023-05-24T07:40:47.553Z,12.24
2023-05-24T07:43:15.596Z,12.12
2023-05-24T07:45:42.397Z,12.13
2023-05-24T07:48:09.196Z,12.25
2023-05-24T07:50:35.776Z,12.28
2023-05-24T07:53:02.322Z,12.15
2023-05-24T07:55:28.881Z,12.23
2023-05-24T07:57:55.403Z,12.39
2023-05-24T08:00:23.433Z,12.63
2023-05-24T08:02:50.037Z,12.66
2023-05-24T08:05:16.691Z,12.88
2023-05-24T08:07:43.364Z,12.86
2023-05-24T08:10:10.591Z,12.72
2023-05-24T08:12:37.105Z,12.73
2023-05-24T08:15:04.473Z,12.60
2023-05-24T08:17:32.389Z,12.54
2023-05-24T08:19:59.007Z,12.44
2023-05-24T08:22:25.550Z,12.49
2023-05-24T08:24:52.031Z,12.39
2023-05-24T08:27:18.597Z,12.45
2023-05-24T08:29:45.140Z,12.50
2023-05-24T08:32:11.795Z,12.63
2023-05-24T08:34:39.763Z,12.74
2023-05-24T08:37:06.388Z,12.98
2023-05-24T08:39:32.954Z,13.19
2023-05-24T08:42:08.789Z,13.43
2023-05-24T08:44:41.256Z,13.67
2023-05-24T08:47:09.111Z,13.87
2023-05-24T08:49:36.035Z,14.02
2023-05-24T08:52:05.433Z,14.13
2023-05-24T08:54:32.257Z,14.23
2023-05-24T08:56:59.522Z,14.19
2023-05-24T08:59:26.105Z,14.15
2023-05-24T09:01:54.110Z,14.04
2023-05-24T09:04:21.553Z,13.98
2023-05-24T09:06:48.547Z,13.75
2023-05-24T09:09:18.402Z,13.72
2023-05-24T09:11:47.106Z,13.70
2023-05-24T09:14:14.124Z,13.55
2023-05-24T09:16:41.163Z,13.60
2023-05-24T09:19:07.821Z,13.68
2023-05-24T09:21:34.566Z,13.67
2023-05-24T09:24:01.113Z,13.75
2023-05-24T09:26:30.009Z,13.85
2023-05-24T09:28:56.617Z,13.87
2023-05-24T09:31:32.873Z,13.80
2023-05-24T09:33:59.486Z,13.76
2023-05-24T09:36:26.992Z,13.97
2023-05-24T09:39:06.483Z,14.17
2023-05-24T09:41:34.367Z,14.11
2023-05-24T09:44:01.971Z,14.15
2023-05-24T09:46:28.674Z,14.18
2023-05-24T09:48:59.081Z,14.53
2023-05-24T09:51:26.837Z,14.67
2023-05-24T09:53:57.243Z,14.67
2023-05-24T09:56:24.345Z,14.79
2023-05-24T09:58:52.260Z,14.92
2023-05-24T10:01:22.058Z,15.14
2023-05-24T10:03:56.014Z,15.30
2023-05-24T10:06:23.002Z,15.37
2023-05-24T10:08:50.316Z,15.61
2023-05-24T10:11:17.003Z,15.94
2023-05-24T10:13:44.071Z,16.21
2023-05-24T10:16:12.202Z,16.19
2023-05-24T10:18:38.784Z,16.07
2023-05-24T10:21:06.751Z,15.82
2023-05-24T10:23:36.235Z,15.72
2023-05-24T10:26:04.773Z,15.65
2023-05-24T10:28:31.672Z,15.55
2023-05-24T10:31:03.190Z,15.59
2023-05-24T10:33:34.742Z,15.61
2023-05-24T10:36:03.454Z,15.61
2023-05-24T10:38:30.309Z,15.67
2023-05-24T10:40:57.449Z,15.49
2023-05-24T10:43:24.125Z,15.26
2023-05-24T10:45:51.171Z,15.21
2023-05-24T10:48:38.708Z,15.05
2023-05-24T10:51:31.260Z,15.07
2023-05-24T10:53:57.775Z,15.04
2023-05-24T10:56:27.439Z,15.08
2023-05-24T10:59:00.162Z,14.93
2023-05-24T11:01:28.124Z,14.94
2023-05-24T11:04:06.971Z,14.89
2023-05-24T11:06:46.148Z,14.84
2023-05-24T11:09:12.715Z,14.78
2023-05-24T11:11:39.299Z,14.80
2023-05-24T11:14:06.235Z,14.80
2023-05-24T11:16:33.581Z,14.79
2023-05-24T11:19:12.896Z,14.82
2023-05-24T11:21:39.819Z,14.79
2023-05-24T11:24:06.996Z,14.86
2023-05-24T11:26:33.570Z,14.93
2023-05-24T11:29:03.315Z,15.03
2023-05-24T11:31:31.586Z,15.16
2023-05-24T11:33:58.196Z,15.27
2023-05-24T11:36:26.222Z,15.38
2023-05-24T11:38:54.060Z,15.44
2023-05-24T11:41:20.934Z,15.47
2023-05-24T11:43:47.663Z,15.49
2023-05-24T11:46:15.614Z,15.51
2023-05-24T11:48:42.363Z,15.66
2023-05-24T11:51:08.951Z,15.48
2023-05-24T11:53:37.451Z,15.35
2023-05-24T11:56:04.471Z,15.37
2023-05-24T11:58:42.625Z,15.23
2023-05-24T12:01:23.597Z,15.22
2023-05-24T12:03:51.217Z,15.03
2023-05-24T12:06:18.178Z,15.05
2023-05-24T12:08:46.694Z,15.01
2023-05-24T12:11:13.454Z,14.99
2023-05-24T12:13:40.512Z,15.06
2023-05-24T12:16:07.286Z,15.08
2023-05-24T12:18:34.501Z,15.18
2023-05-24T12:21:06.669Z,15.22
2023-05-24T12:23:35.277Z,15.18
2023-05-24T12:26:03.548Z,15.18
2023-05-24T12:28:32.810Z,15.32
2023-05-24T12:30:59.428Z,15.47
2023-05-24T12:33:27.289Z,15.65
2023-05-24T12:35:54.714Z,15.76
2023-05-24T12:38:21.225Z,15.87
2023-05-24T12:40:54.404Z,16.02
2023-05-24T12:43:32.152Z,15.96
2023-05-24T12:45:58.691Z,15.93
2023-05-24T12:48:25.249Z,15.94
2023-05-24T12:50:51.797Z,16.00
2023-05-24T12:53:18.487Z,16.01
2023-05-24T12:55:45.171Z,16.11
2023-05-24T12:58:11.858Z,16.06
2023-05-24T13:00:39.778Z,16.11
2023-05-24T13:03:06.398Z,16.39
2023-05-24T13:05:33.061Z,16.63
2023-05-24T13:07:59.785Z,16.62
2023-05-24T13:10:26.726Z,16.77
2023-05-24T13:12:53.376Z,17.03
2023-05-24T13:15:20.112Z,17.15
2023-05-24T13:17:48.010Z,16.99
2023-05-24T13:20:14.647Z,16.89
2023-05-24T13:22:41.763Z,16.69
2023-05-24T13:25:09.378Z,16.79
2023-05-24T13:27:36.006Z,16.69
2023-05-24T13:30:02.753Z,16.51
2023-05-24T13:32:29.373Z,16.49
2023-05-24T13:34:57.349Z,16.52
2023-05-24T13:37:24.359Z,16.75
2023-05-24T13:39:51.159Z,16.79
2023-05-24T13:42:17.862Z,16.82
2023-05-24T13:44:44.466Z,16.82
2023-05-24T13:47:11.090Z,16.67
2023-05-24T13:49:37.786Z,16.65
2023-05-24T13:52:05.745Z,16.66
2023-05-24T13:54:32.315Z,16.54
2023-05-24T13:56:58.849Z,16.46
2023-05-24T13:59:25.469Z,16.41
2023-05-24T14:01:52.053Z,16.19
2023-05-24T14:04:18.688Z,15.99
2023-05-24T14:06:45.426Z,15.84
2023-05-24T14:09:13.287Z,15.80
2023-05-24T14:11:39.889Z,15.76
2023-05-24T14:16:35.964Z,15.65
2023-05-24T14:19:02.632Z,15.55
2023-05-24T14:21:29.170Z,15.58
2023-05-24T14:23:55.680Z,15.63
2023-05-24T14:26:23.801Z,15.88
2023-05-24T14:28:52.302Z,15.92
2023-05-24T14:31:20.328Z,15.90
2023-05-24T14:33:46.960Z,15.81
2023-05-24T14:36:13.499Z,15.86
2023-05-24T14:38:40.046Z,15.84
2023-05-24T14:41:06.581Z,15.73
2023-05-24T14:43:34.495Z,15.66
2023-05-24T14:46:01.035Z,15.60
2023-05-24T14:48:27.690Z,15.62
2023-05-24T14:50:54.231Z,15.56
2023-05-24T14:53:20.771Z,15.56
2023-05-24T14:55:47.384Z,15.56
2023-05-24T14:58:14.310Z,15.60
2023-05-24T15:00:42.886Z,15.52
2023-05-24T15:03:09.824Z,15.57
2023-05-24T15:05:36.930Z,15.59
2023-05-24T15:08:03.997Z,15.57
2023-05-24T15:10:30.506Z,15.58
2023-05-24T15:12:57.052Z,15.61
2023-05-24T15:15:23.598Z,15.60
2023-05-24T15:17:51.535Z,15.60
2023-05-24T15:20:19.600Z,15.61
2023-05-24T15:22:46.385Z,15.62
2023-05-24T15:25:12.925Z,15.61
2023-05-24T15:27:39.517Z,15.61
2023-05-24T15:30:07.459Z,15.68
2023-05-24T15:32:34.089Z,15.72
2023-05-24T15:35:01.978Z,15.75
2023-05-24T15:37:28.703Z,15.70
2023-05-24T15:39:55.273Z,15.72
2023-05-24T15:42:21.868Z,15.79
2023-05-24T15:44:48.428Z,15.86
2023-05-24T15:47:15.034Z,15.91
2023-05-24T15:49:41.586Z,15.93
2023-05-24T15:52:09.698Z,16.01
2023-05-24T15:54:36.504Z,16.04
2023-05-24T15:57:03.062Z,16.16
2023-05-24T15:59:29.565Z,16.34
2023-05-24T16:01:56.101Z,16.44
2023-05-24T16:04:22.693Z,16.57
2023-05-24T16:06:49.266Z,16.74
2023-05-24T16:09:17.182Z,16.93
2023-05-24T16:11:43.728Z,16.98
2023-05-24T16:14:10.381Z,16.91
2023-05-24T16:16:37.004Z,16.86
2023-05-24T16:19:03.583Z,16.84
2023-05-24T16:21:30.078Z,16.84
2023-05-24T16:23:56.566Z,16.88
2023-05-24T16:26:24.468Z,16.73
2023-05-24T16:28:51.041Z,16.74
2023-05-24T16:31:17.640Z,16.58
2023-05-24T16:33:44.442Z,16.58
2023-05-24T16:36:10.959Z,16.68
2023-05-24T16:38:37.539Z,16.70
2023-05-24T16:41:04.133Z,16.77
2023-05-24T16:43:32.372Z,16.78
2023-05-24T16:46:00.642Z,16.86
2023-05-24T16:48:27.462Z,16.75
2023-05-24T16:50:54.611Z,16.63
2023-05-24T16:53:22.629Z,16.62
2023-05-24T16:55:49.144Z,16.56
2023-05-24T16:58:15.734Z,16.56
2023-05-24T17:00:43.779Z,16.50
2023-05-24T17:03:10.512Z,16.35
2023-05-24T17:05:37.968Z,16.23
2023-05-24T17:08:04.669Z,16.15
2023-05-24T17:10:31.228Z,16.21
2023-05-24T17:12:57.836Z,16.24
2023-05-24T17:15:24.413Z,16.35
2023-05-24T17:17:52.414Z,16.56
2023-05-24T17:20:19.007Z,16.58
2023-05-24T17:22:45.566Z,16.33
2023-05-24T17:25:12.072Z,16.37
2023-05-24T17:27:38.615Z,16.44
2023-05-24T17:30:06.376Z,16.45
2023-05-24T17:32:32.999Z,16.50
2023-05-24T17:35:00.918Z,16.35
2023-05-24T17:37:27.451Z,16.29
2023-05-24T17:39:54.001Z,16.35
2023-05-24T17:42:20.556Z,16.40
2023-05-24T17:44:47.102Z,16.32
2023-05-24T17:47:13.647Z,16.24
2023-05-24T17:49:40.172Z,16.22
2023-05-24T17:52:08.085Z,16.38
2023-05-24T17:54:34.605Z,16.33
2023-05-24T17:57:01.475Z,16.32
2023-05-24T17:59:28.033Z,16.25
2023-05-24T18:01:54.605Z,16.26
2023-05-24T18:04:21.203Z,16.14
2023-05-24T18:06:47.728Z,16.24
2023-05-24T18:09:15.672Z,16.54
2023-05-24T18:11:42.193Z,17.04
2023-05-24T18:14:08.792Z,17.35
2023-05-24T18:16:35.396Z,17.11
2023-05-24T18:19:01.996Z,16.77
2023-05-24T18:21:28.509Z,16.55
2023-05-24T18:23:55.079Z,16.23
2023-05-24T18:26:22.948Z,16.06
2023-05-24T18:28:49.493Z,15.95
2023-05-24T18:31:16.015Z,15.84
2023-05-24T18:33:42.653Z,15.84
2023-05-24T18:36:09.316Z,15.72
2023-05-24T18:38:36.665Z,15.69
2023-05-24T18:41:05.762Z,15.63
2023-05-24T18:43:34.382Z,15.54
2023-05-24T18:46:00.942Z,15.54
2023-05-24T18:48:27.502Z,15.46
2023-05-24T18:50:54.299Z,15.35
2023-05-24T18:53:20.906Z,15.29
2023-05-24T18:55:47.455Z,15.18
2023-05-24T18:58:13.981Z,15.14
2023-05-24T19:00:41.884Z,15.02
2023-05-24T19:03:08.465Z,14.97
2023-05-24T19:05:35.039Z,14.91
2023-05-24T19:08:01.603Z,14.86
2023-05-24T19:10:28.155Z,14.74
2023-05-24T19:12:54.706Z,14.66
2023-05-24T19:15:21.229Z,14.57
2023-05-24T19:17:49.133Z,14.48
2023-05-24T19:20:15.734Z,14.39
2023-05-24T19:22:42.264Z,14.32
2023-05-24T19:25:09.446Z,14.27
2023-05-24T19:27:37.888Z,14.19
2023-05-24T19:30:07.810Z,14.15
2023-05-24T19:32:34.381Z,14.10
2023-05-24T19:35:02.360Z,13.99
2023-05-24T19:37:28.878Z,13.94
2023-05-24T19:39:55.394Z,13.83
2023-05-24T19:42:21.896Z,13.79
2023-05-24T19:44:48.431Z,13.76
2023-05-24T19:47:15.073Z,13.66
2023-05-24T19:49:41.597Z,13.61
2023-05-24T19:52:09.450Z,13.59
2023-05-24T19:54:35.983Z,13.52
2023-05-24T19:57:02.583Z,13.51
2023-05-24T19:59:29.116Z,13.46
2023-05-24T20:01:55.666Z,13.44
2023-05-24T20:04:22.239Z,13.44
2023-05-24T20:06:48.799Z,13.43
2023-05-24T20:09:16.758Z,13.37
2023-05-24T20:11:43.349Z,13.33
2023-05-24T20:14:09.859Z,13.29
2023-05-24T20:16:36.457Z,13.28
2023-05-24T20:19:03.031Z,13.21
2023-05-24T20:21:29.597Z,13.17
2023-05-24T20:23:58.463Z,13.16
2023-05-24T20:26:26.969Z,13.09
2023-05-24T20:28:53.687Z,13.00
2023-05-24T20:31:20.329Z,13.00
2023-05-24T20:33:46.946Z,12.97
2023-05-24T20:36:13.516Z,12.95
2023-05-24T20:38:40.121Z,12.93
2023-05-24T20:41:06.685Z,12.88
2023-05-24T20:43:34.560Z,12.85
2023-05-24T20:46:01.072Z,12.80
2023-05-24T20:48:28.135Z,12.74
2023-05-24T20:50:54.678Z,12.68
2023-05-24T20:53:21.231Z,12.66
2023-05-24T20:55:47.789Z,12.63
2023-05-24T20:58:14.365Z,12.60
2023-05-24T21:00:42.272Z,12.56
2023-05-24T21:03:08.950Z,12.53
2023-05-24T21:05:35.537Z,12.51
2023-05-24T21:08:02.535Z,12.51
2023-05-24T21:10:29.244Z,12.48
2023-05-24T21:12:55.826Z,12.43
2023-05-24T21:15:22.409Z,12.39
2023-05-24T21:17:50.294Z,12.36
2023-05-24T21:20:16.951Z,12.34
2023-05-24T21:22:43.664Z,12.37
2023-05-24T21:25:10.229Z,12.34
2023-05-24T21:27:36.724Z,12.34
2023-05-24T21:30:03.826Z,12.26
2023-05-24T21:32:30.411Z,12.20
2023-05-24T21:34:58.306Z,12.16
2023-05-24T21:37:25.045Z,12.12
2023-05-24T21:39:51.628Z,12.05
2023-05-24T21:42:18.217Z,11.98
2023-05-24T21:44:44.948Z,11.97
2023-05-24T21:47:11.529Z,11.94
2023-05-24T21:49:38.045Z,11.90
2023-05-24T21:52:06.098Z,11.90
2023-05-24T21:54:32.650Z,11.85
2023-05-24T21:56:59.223Z,11.82
2023-05-24T21:59:25.753Z,11.77
2023-05-24T22:01:52.312Z,11.74
2023-05-24T22:04:18.913Z,11.70
2023-05-24T22:06:45.517Z,11.65
2023-05-24T22:09:13.407Z,11.63
2023-05-24T22:11:40.025Z,11.62
2023-05-24T22:14:07.056Z,11.60
2023-05-24T22:16:33.824Z,11.59
2023-05-24T22:19:00.425Z,11.57
2023-05-24T22:21:27.882Z,11.54
2023-05-24T22:23:54.417Z,11.52
2023-05-24T22:26:22.307Z,11.51
2023-05-24T22:28:50.947Z,11.49
2023-05-24T22:31:17.546Z,11.46
2023-05-24T22:33:44.107Z,11.44
2023-05-24T22:36:10.637Z,11.43
2023-05-24T22:38:37.179Z,11.41
2023-05-24T22:41:03.730Z,11.42
2023-05-24T22:43:31.708Z,11.39
2023-05-24T22:45:58.302Z,11.38
2023-05-24T22:48:24.868Z,11.38
2023-05-24T22:50:51.414Z,11.43
2023-05-24T22:53:18.025Z,11.35
2023-05-24T22:55:44.723Z,11.26
2023-05-24T22:58:11.352Z,11.26
2023-05-24T23:00:39.228Z,11.19
2023-05-24T23:03:05.820Z,11.15
2023-05-24T23:05:32.403Z,11.12
2023-05-24T23:07:58.934Z,11.09
2023-05-24T23:10:25.516Z,11.06
2023-05-24T23:12:52.076Z,11.04
2023-05-24T23:15:18.606Z,11.06
2023-05-24T23:17:46.683Z,11.00
2023-05-24T23:20:13.297Z,11.00
2023-05-24T23:22:40.047Z,10.94
2023-05-24T23:25:08.172Z,10.93
2023-05-24T23:27:34.699Z,10.89
2023-05-24T23:30:01.410Z,10.86
2023-05-24T23:32:28.004Z,10.85
2023-05-24T23:34:55.959Z,10.84
2023-05-24T23:37:22.536Z,10.80
2023-05-24T23:39:49.222Z,10.78
2023-05-24T23:42:15.742Z,10.75
2023-05-24T23:44:42.284Z,10.74
2023-05-24T23:47:08.921Z,10.70
2023-05-24T23:49:35.530Z,10.70
2023-05-24T23:52:03.767Z,10.69
2023-05-24T23:54:30.324Z,10.73
2023-05-24T23:56:56.861Z,10.68
2023-05-24T23:59:23.421Z,10.68
